createdAt,value
2019-04-04T00:01:16.992Z,99860.42
2019-04-04T00:03:51.527Z,99863.67
2019-04-04T00:06:22.588Z,99860.50
2019-04-04T00:08:55.264Z,99864.39
2019-04-04T00:11:27.929Z,99860.88
2019-04-04T00:14:01.241Z,99854.59
2019-04-04T00:16:36.313Z,99855.94
2019-04-04T00:19:10.476Z,99860.29
2019-04-04T00:21:43.483Z,99848.52
2019-04-04T00:24:15.643Z,99849.03
2019-04-04T00:26:50.690Z,99849.77
2019-04-04T00:29:40.448Z,99853.97
2019-04-04T00:32:11.903Z,99848.66
2019-04-04T00:34:45.465Z,99853.75
2019-04-04T00:37:31.566Z,99849.48
2019-04-04T00:40:10.882Z,99858.20
2019-04-04T00:42:43.473Z,99852.73
2019-04-04T00:45:17.675Z,99859.05
2019-04-04T00:47:49.125Z,99847.53
2019-04-04T00:50:30.458Z,99850.17
2019-04-04T00:53:06.571Z,99849.81
2019-04-04T00:55:39.433Z,99846.16
2019-04-04T00:58:12.123Z,99842.89
2019-04-04T01:00:49.328Z,99842.73
2019-04-04T01:03:33.328Z,99843.30
2019-04-04T01:06:06.144Z,99842.09
2019-04-04T01:08:38.793Z,99848.45
2019-04-04T01:11:11.375Z,99837.17
2019-04-04T01:13:46.077Z,99834.19
2019-04-04T01:16:21.469Z,99837.21
2019-04-04T01:18:52.929Z,99834.19
2019-04-04T01:21:24.560Z,99839.14
2019-04-04T01:23:58.978Z,99832.17
2019-04-04T01:26:34.863Z,99836.05
2019-04-04T01:29:10.181Z,99839.44
2019-04-04T01:31:48.648Z,99835.00
2019-04-04T01:34:21.507Z,99831.61
2019-04-04T01:36:56.353Z,99828.11
2019-04-04T01:39:33.144Z,99825.33
2019-04-04T01:42:08.518Z,99833.91
2019-04-04T01:44:49.855Z,99828.23
2019-04-04T01:47:24.318Z,99828.19
2019-04-04T01:49:58.601Z,99822.39
2019-04-04T01:52:41.451Z,99817.80
2019-04-04T01:55:18.729Z,99816.44
2019-04-04T01:57:52.275Z,99820.42
2019-04-04T02:00:23.734Z,99820.66
2019-04-04T02:02:57.730Z,99819.17
2019-04-04T02:05:30.323Z,99810.09
2019-04-04T02:08:01.758Z,99815.02
2019-04-04T02:10:35.669Z,99814.16
2019-04-04T02:13:09.491Z,99809.67
2019-04-04T02:15:42.858Z,99810.05
2019-04-04T02:18:16.808Z,99813.86
2019-04-04T02:20:48.251Z,99817.59
2019-04-04T02:23:26.754Z,99808.02
2019-04-04T02:26:00.653Z,99802.69
2019-04-04T02:28:33.640Z,99800.58
2019-04-04T02:31:07.586Z,99799.12
2019-04-04T02:33:40.234Z,99799.83
2019-04-04T02:36:16.255Z,99794.89
2019-04-04T02:39:05.955Z,99797.66
2019-04-04T02:41:38.860Z,99792.06
2019-04-04T02:44:10.311Z,99790.20
2019-04-04T02:46:44.756Z,99793.45
2019-04-04T02:49:15.059Z,99789.91
2019-04-04T02:51:46.508Z,99792.91
2019-04-04T02:54:17.956Z,99797.06
2019-04-04T02:56:51.872Z,99793.67
2019-04-04T02:59:23.321Z,99782.94
2019-04-04T03:01:57.226Z,99788.11
2019-04-04T03:04:29.444Z,99791.25
2019-04-04T03:07:02.277Z,99794.74
2019-04-04T03:09:34.666Z,99791.66
2019-04-04T03:12:07.335Z,99787.29
2019-04-04T03:14:38.779Z,99782.66
2019-04-04T03:17:10.327Z,99786.02
2019-04-04T03:19:44.575Z,99784.09
2019-04-04T03:22:16.689Z,99784.21
2019-04-04T03:24:49.985Z,99774.56
2019-04-04T03:27:25.636Z,99773.48
2019-04-04T03:29:56.387Z,99775.16
2019-04-04T03:32:27.853Z,99775.38
2019-04-04T03:34:59.315Z,99772.50
2019-04-04T03:37:31.064Z,99774.05
2019-04-04T03:40:03.900Z,99771.95
2019-04-04T03:42:36.741Z,99773.14
2019-04-04T03:45:08.638Z,99767.33
2019-04-04T03:47:44.598Z,99774.21
2019-04-04T03:50:15.684Z,99768.42
2019-04-04T03:52:48.359Z,99770.71
2019-04-04T03:55:21.953Z,99762.75
2019-04-04T03:57:55.340Z,99764.02
2019-04-04T04:00:29.885Z,99767.96
2019-04-04T04:03:01.540Z,99768.19
2019-04-04T04:05:36.660Z,99768.44
2019-04-04T04:08:08.736Z,99769.33
2019-04-04T04:10:40.178Z,99776.19
2019-04-04T04:13:16.182Z,99773.95
2019-04-04T04:15:48.294Z,99770.04
2019-04-04T04:18:21.725Z,99777.84
2019-04-04T04:20:54.579Z,99777.19
2019-04-04T04:23:27.263Z,99774.42
2019-04-04T04:26:00.856Z,99777.30
2019-04-04T04:28:33.545Z,99775.59
2019-04-04T04:31:06.249Z,99781.64
2019-04-04T04:33:40.426Z,99775.75
2019-04-04T04:36:15.820Z,99781.42
2019-04-04T04:38:47.952Z,99773.39
2019-04-04T04:41:24.619Z,99770.52
2019-04-04T04:43:58.925Z,99775.71
2019-04-04T04:46:31.828Z,99770.55
2019-04-04T04:49:04.502Z,99771.22
2019-04-04T04:51:38.094Z,99768.60
2019-04-04T04:54:10.800Z,99763.18
2019-04-04T04:56:44.388Z,99766.64
2019-04-04T04:59:17.065Z,99767.88
2019-04-04T05:01:50.666Z,99760.84
2019-04-04T05:04:22.743Z,99763.03
2019-04-04T05:06:55.428Z,99762.73
2019-04-04T05:09:28.106Z,99760.84
2019-04-04T05:11:59.641Z,99766.39
2019-04-04T05:14:32.536Z,99774.91
2019-04-04T05:17:08.069Z,99773.83
2019-04-04T05:19:40.662Z,99765.44
2019-04-04T05:22:14.267Z,99767.55
2019-04-04T05:24:49.153Z,99760.95
2019-04-04T05:27:19.956Z,99762.73
2019-04-04T05:29:52.932Z,99759.23
2019-04-04T05:32:25.622Z,99751.67
2019-04-04T05:35:00.981Z,99748.39
2019-04-04T05:37:32.524Z,99752.86
2019-04-04T05:40:03.956Z,99755.48
2019-04-04T05:42:37.563Z,99753.22
2019-04-04T05:45:08.998Z,99748.61
2019-04-04T05:47:41.693Z,99747.64
2019-04-04T05:50:16.491Z,99755.45
2019-04-04T05:52:48.277Z,99755.40
2019-04-04T05:55:19.778Z,99752.17
2019-04-04T05:57:51.634Z,99753.10
2019-04-04T06:00:25.069Z,99749.02
2019-04-04T06:02:56.555Z,99750.42
2019-04-04T06:05:28.308Z,99753.70
2019-04-04T06:07:59.784Z,99755.55
2019-04-04T06:10:31.191Z,99756.45
2019-04-04T06:13:02.726Z,99757.22
2019-04-04T06:15:35.324Z,99756.53
2019-04-04T06:18:10.988Z,99745.21
2019-04-04T06:20:42.538Z,99759.11
2019-04-04T06:23:14.019Z,99746.77
2019-04-04T06:25:45.454Z,99750.18
2019-04-04T06:28:16.948Z,99748.03
2019-04-04T06:30:53.493Z,99741.34
2019-04-04T06:33:24.398Z,99743.47
2019-04-04T06:35:55.843Z,99728.04
2019-04-04T06:38:29.447Z,99736.59
2019-04-04T06:41:02.165Z,99733.80
2019-04-04T06:43:33.616Z,99729.14
2019-04-04T06:46:05.063Z,99739.98
2019-04-04T06:48:36.478Z,99729.14
2019-04-04T06:51:09.158Z,99736.36
2019-04-04T06:53:41.854Z,99724.97
2019-04-04T06:56:13.376Z,99731.51
2019-04-04T06:58:46.297Z,99732.70
2019-04-04T07:01:20.947Z,99715.08
2019-04-04T07:03:52.752Z,99712.76
2019-04-04T07:06:25.567Z,99714.84
2019-04-04T07:08:58.248Z,99715.02
2019-04-04T07:11:29.683Z,99712.98
2019-04-04T07:14:02.361Z,99726.11
2019-04-04T07:16:36.763Z,99709.30
2019-04-04T07:19:09.583Z,99706.80
2019-04-04T07:21:41.053Z,99705.73
2019-04-04T07:24:12.496Z,99698.81
2019-04-04T07:26:45.495Z,99700.57
2019-04-04T07:29:18.441Z,99701.33
2019-04-04T07:31:51.129Z,99697.34
2019-04-04T07:34:22.578Z,99706.14
2019-04-04T07:36:54.031Z,99705.47
2019-04-04T07:39:26.711Z,99702.98
2019-04-04T07:41:58.152Z,99707.12
2019-04-04T07:44:30.867Z,99704.70
2019-04-04T07:47:02.293Z,99702.91
2019-04-04T07:49:34.674Z,99710.68
2019-04-04T07:52:06.269Z,99698.03
2019-04-04T07:54:39.222Z,99698.27
2019-04-04T07:57:10.898Z,99698.95
2019-04-04T07:59:43.557Z,99693.38
2019-04-04T08:02:15.014Z,99702.80
2019-04-04T08:04:46.768Z,99701.27
2019-04-04T08:07:18.195Z,99702.73
2019-04-04T08:09:50.887Z,99699.78
2019-04-04T08:12:22.323Z,99700.23
2019-04-04T08:14:55.019Z,99695.07
2019-04-04T08:17:26.458Z,99694.38
2019-04-04T08:20:00.129Z,99696.44
2019-04-04T08:22:34.301Z,99701.92
2019-04-04T08:25:06.205Z,99708.88
2019-04-04T08:27:39.022Z,99700.83
2019-04-04T08:30:11.698Z,99694.90
2019-04-04T08:32:45.296Z,99696.59
2019-04-04T08:35:18.008Z,99700.16
2019-04-04T08:37:49.457Z,99695.98
2019-04-04T08:40:21.263Z,99687.53
2019-04-04T08:42:53.879Z,99693.48
2019-04-04T08:45:26.570Z,99688.66
2019-04-04T08:47:58.029Z,99685.48
2019-04-04T08:50:31.929Z,99680.39
2019-04-04T08:53:03.400Z,99671.53
2019-04-04T08:55:35.307Z,99676.01
2019-04-04T08:58:06.931Z,99674.71
2019-04-04T09:00:38.663Z,99677.81
2019-04-04T09:03:11.318Z,99669.17
2019-04-04T09:05:44.005Z,99670.85
2019-04-04T09:08:16.680Z,99663.09
2019-04-04T09:10:50.281Z,99676.86
2019-04-04T09:13:22.959Z,99664.70
2019-04-04T09:15:55.958Z,99661.19
2019-04-04T09:18:29.271Z,99662.23
2019-04-04T09:21:03.164Z,99655.33
2019-04-04T09:23:35.836Z,99661.35
2019-04-04T09:26:08.516Z,99660.71
2019-04-04T09:28:41.197Z,99656.09
2019-04-04T09:31:12.732Z,99644.60
2019-04-04T09:33:46.254Z,99642.48
2019-04-04T09:36:18.625Z,99647.03
2019-04-04T09:38:50.071Z,99642.47
2019-04-04T09:41:22.755Z,99665.66
2019-04-04T09:43:55.427Z,99651.94
2019-04-04T09:46:29.032Z,99659.06
2019-04-04T09:49:01.712Z,99652.17
2019-04-04T09:51:34.390Z,99650.25
2019-04-04T09:54:07.072Z,99644.16
2019-04-04T09:56:39.752Z,99656.77
2019-04-04T09:59:11.276Z,99649.86
2019-04-04T10:01:43.886Z,99647.84
2019-04-04T10:04:16.570Z,99653.50
2019-04-04T10:06:48.035Z,99643.63
2019-04-04T10:09:19.462Z,99642.47
2019-04-04T10:11:52.158Z,99641.49
2019-04-04T10:14:23.594Z,99649.12
2019-04-04T10:16:56.329Z,99647.55
2019-04-04T10:19:27.767Z,99656.08
2019-04-04T10:21:59.193Z,99635.00
2019-04-04T10:24:30.935Z,99636.36
2019-04-04T10:27:03.636Z,99628.37
2019-04-04T10:29:35.095Z,99637.83
2019-04-04T10:32:06.539Z,99644.64
2019-04-04T10:34:38.296Z,99627.91
2019-04-04T10:37:10.048Z,99626.70
2019-04-04T10:39:42.749Z,99637.94
2019-04-04T10:42:14.176Z,99623.94
2019-04-04T10:44:46.852Z,99622.27
2019-04-04T10:47:18.407Z,99617.49
2019-04-04T10:49:51.305Z,99606.95
2019-04-04T10:52:24.916Z,99618.69
2019-04-04T10:54:56.364Z,99627.46
2019-04-04T10:57:27.807Z,99614.28
2019-04-04T10:59:59.250Z,99615.41
2019-04-04T11:02:30.724Z,99621.74
2019-04-04T11:05:02.172Z,99617.17
2019-04-04T11:07:35.911Z,99610.55
2019-04-04T11:10:07.525Z,99612.11
2019-04-04T11:12:39.890Z,99607.84
2019-04-04T11:15:12.609Z,99612.64
2019-04-04T11:17:45.874Z,99610.84
2019-04-04T11:20:17.307Z,99628.28
2019-04-04T11:22:49.996Z,99620.73
2019-04-04T11:25:22.978Z,99622.03
2019-04-04T11:27:55.654Z,99602.48
2019-04-04T11:30:28.329Z,99635.23
2019-04-04T11:33:01.011Z,99611.84
2019-04-04T11:35:34.175Z,99620.91
2019-04-04T11:38:05.781Z,99602.05
2019-04-04T11:40:37.212Z,99603.75
2019-04-04T11:43:09.888Z,99609.05
2019-04-04T11:45:42.571Z,99601.67
2019-04-04T11:48:15.266Z,99608.56
2019-04-04T11:50:46.705Z,99593.94
2019-04-04T11:53:20.339Z,99595.02
2019-04-04T11:55:51.781Z,99599.45
2019-04-04T11:58:23.225Z,99590.32
2019-04-04T12:01:01.412Z,99594.19
2019-04-04T12:03:34.108Z,99592.45
2019-04-04T12:06:06.469Z,99582.39
2019-04-04T12:08:39.161Z,99595.23
2019-04-04T12:11:10.653Z,99608.16
2019-04-04T12:13:42.084Z,99578.33
2019-04-04T12:16:13.511Z,99585.27
2019-04-04T12:18:45.255Z,99576.72
2019-04-04T12:21:17.933Z,99579.22
2019-04-04T12:23:51.493Z,99583.55
2019-04-04T12:26:25.445Z,99584.17
2019-04-04T12:29:00.113Z,99591.48
2019-04-04T12:31:32.649Z,99576.66
2019-04-04T12:34:05.359Z,99580.78
2019-04-04T12:36:37.555Z,99577.08
2019-04-04T12:39:09.270Z,99582.29
2019-04-04T12:41:42.144Z,99578.28
2019-04-04T12:44:13.601Z,99565.03
2019-04-04T12:46:47.191Z,99571.97
2019-04-04T12:49:19.885Z,99571.23
2019-04-04T12:51:52.557Z,99575.58
2019-04-04T12:54:25.259Z,99565.97
2019-04-04T12:56:56.692Z,99567.14
2019-04-04T12:59:29.393Z,99553.22
2019-04-04T13:02:02.065Z,99569.45
2019-04-04T13:04:33.505Z,99561.65
2019-04-04T13:07:05.038Z,99558.35
2019-04-04T13:09:38.568Z,99559.80
2019-04-04T13:12:11.266Z,99560.91
2019-04-04T13:14:44.225Z,99549.22
2019-04-04T13:17:15.751Z,99552.66
2019-04-04T13:19:48.364Z,99544.14
2019-04-04T13:22:19.899Z,99563.12
2019-04-04T13:24:52.491Z,99556.84
2019-04-04T13:27:26.107Z,99561.95
2019-04-04T13:29:57.547Z,99557.15
2019-04-04T13:32:31.459Z,99552.20
2019-04-04T13:35:05.693Z,99553.91
2019-04-04T13:37:37.436Z,99546.98
2019-04-04T13:40:08.880Z,99548.27
2019-04-04T13:42:40.411Z,99567.20
2019-04-04T13:45:12.091Z,99551.45
2019-04-04T13:47:46.163Z,99558.55
2019-04-04T13:50:20.645Z,99553.91
2019-04-04T13:52:53.510Z,99557.32
2019-04-04T13:55:27.397Z,99559.37
2019-04-04T13:57:59.816Z,99554.58
2019-04-04T14:00:31.373Z,99542.08
2019-04-04T14:03:04.553Z,99546.77
2019-04-04T14:05:37.194Z,99555.69
2019-04-04T14:08:09.950Z,99554.78
2019-04-04T14:10:41.351Z,99552.94
2019-04-04T14:13:14.462Z,99552.25
2019-04-04T14:15:47.310Z,99545.94
2019-04-04T14:18:38.160Z,99552.36
2019-04-04T14:21:03.685Z,99548.80
2019-04-04T14:23:33.965Z,99544.75
2019-04-04T14:26:06.648Z,99526.28
2019-04-04T14:28:39.345Z,99543.02
2019-04-04T14:31:12.480Z,99541.45
2019-04-04T14:33:45.323Z,99538.12
2019-04-04T14:36:17.671Z,99536.09
2019-04-04T14:38:50.106Z,99548.66
2019-04-04T14:41:21.988Z,99545.64
2019-04-04T14:43:54.796Z,99536.72
2019-04-04T14:46:26.236Z,99533.22
2019-04-04T14:48:58.943Z,99541.57
2019-04-04T14:51:30.663Z,99539.84
2019-04-04T14:54:03.356Z,99538.75
2019-04-04T14:56:36.033Z,99551.06
2019-04-04T14:59:09.632Z,99540.47
2019-04-04T15:01:42.313Z,99540.22
2019-04-04T15:04:15.001Z,99530.42
2019-04-04T15:06:46.518Z,99526.94
2019-04-04T15:09:19.168Z,99532.67
2019-04-04T15:11:50.591Z,99538.75
2019-04-04T15:14:24.183Z,99529.06
2019-04-04T15:16:57.236Z,99537.98
2019-04-04T15:19:32.459Z,99537.20
2019-04-04T15:22:04.541Z,99538.65
2019-04-04T15:24:40.129Z,99537.96
2019-04-04T15:27:16.338Z,99539.27
2019-04-04T15:30:00.073Z,99544.05
2019-04-04T15:32:40.444Z,99540.59
2019-04-04T15:35:12.964Z,99542.93
2019-04-04T15:37:46.579Z,99538.75
2019-04-04T15:40:19.880Z,99546.99
2019-04-04T15:42:51.326Z,99549.13
2019-04-04T15:45:25.224Z,99546.30
2019-04-04T15:48:02.814Z,99545.28
2019-04-04T15:50:47.946Z,99543.31
2019-04-04T15:53:22.316Z,99546.11
2019-04-04T15:56:07.919Z,99549.41
2019-04-04T15:58:52.314Z,99550.50
2019-04-04T16:01:20.099Z,99552.48
2019-04-04T16:07:15.544Z,99547.01
2019-04-04T16:09:48.164Z,99555.00
2019-04-04T16:12:20.984Z,99551.45
2019-04-04T16:14:54.784Z,99550.86
2019-04-04T16:17:26.237Z,99548.86
2019-04-04T16:19:57.726Z,99551.13
2019-04-04T16:22:29.121Z,99550.29
2019-04-04T16:25:00.655Z,99560.11
2019-04-04T16:27:32.399Z,99557.48
2019-04-04T16:30:09.250Z,99561.22
2019-04-04T16:32:40.838Z,99565.66
2019-04-04T16:35:15.166Z,99560.67
2019-04-04T16:37:46.752Z,99571.56
2019-04-04T16:40:21.980Z,99566.55
2019-04-04T16:42:56.186Z,99569.98
2019-04-04T16:45:27.884Z,99571.08
2019-04-04T16:48:01.183Z,99573.14
2019-04-04T16:50:32.791Z,99575.61
2019-04-04T16:53:04.350Z,99574.19
2019-04-04T16:55:36.953Z,99572.73
2019-04-04T16:58:09.426Z,99579.88
2019-04-04T17:00:41.319Z,99577.58
2019-04-04T17:03:14.242Z,99581.04
2019-04-04T17:05:47.178Z,99583.44
2019-04-04T17:08:18.617Z,99579.52
2019-04-04T17:10:51.281Z,99585.05
2019-04-04T17:13:26.093Z,99581.63
2019-04-04T17:15:58.448Z,99583.55
2019-04-04T17:18:30.827Z,99599.15
2019-04-04T17:21:02.299Z,99591.16
2019-04-04T17:23:37.222Z,99594.28
2019-04-04T17:26:08.572Z,99599.57
2019-04-04T17:28:40.122Z,99602.53
2019-04-04T17:31:11.820Z,99604.98
2019-04-04T17:33:44.662Z,99607.22
2019-04-04T17:36:20.841Z,99607.41
2019-04-04T17:38:54.834Z,99612.19
2019-04-04T17:41:27.912Z,99610.70
2019-04-04T17:44:02.211Z,99613.77
2019-04-04T17:46:40.078Z,99619.34
2019-04-04T17:49:14.744Z,99627.10
2019-04-04T17:51:48.118Z,99627.31
2019-04-04T17:54:22.233Z,99627.13
2019-04-04T17:56:54.903Z,99631.86
2019-04-04T17:59:26.395Z,99638.25
2019-04-04T18:01:58.493Z,99641.29
2019-04-04T18:04:31.285Z,99641.44
2019-04-04T18:07:02.939Z,99644.78
2019-04-04T18:09:34.920Z,99651.19
2019-04-04T18:12:06.999Z,99650.33
2019-04-04T18:14:43.330Z,99653.03
2019-04-04T18:17:14.813Z,99656.69
2019-04-04T18:19:50.648Z,99658.70
2019-04-04T18:22:25.446Z,99664.34
2019-04-04T18:24:56.879Z,99668.20
2019-04-04T18:27:28.586Z,99668.13
2019-04-04T18:30:02.526Z,99679.96
2019-04-04T18:32:35.447Z,99682.91
2019-04-04T18:35:08.455Z,99683.30
2019-04-04T18:37:40.908Z,99686.05
2019-04-04T18:40:12.652Z,99685.30
2019-04-04T18:42:53.079Z,99687.19
2019-04-04T18:45:17.496Z,99694.42
2019-04-04T18:47:50.875Z,99700.64
2019-04-04T18:50:23.407Z,99696.16
2019-04-04T18:52:56.101Z,99703.02
2019-04-04T18:55:27.746Z,99700.66
2019-04-04T18:57:59.234Z,99704.27
2019-04-04T19:00:31.855Z,99707.41
2019-04-04T19:03:03.343Z,99710.71
2019-04-04T19:05:37.071Z,99714.69
2019-04-04T19:08:12.534Z,99712.72
2019-04-04T19:10:44.482Z,99713.08
2019-04-04T19:13:15.954Z,99720.75
2019-04-04T19:15:48.883Z,99716.88
2019-04-04T19:18:22.726Z,99719.41
2019-04-04T19:20:57.111Z,99723.52
2019-04-04T19:23:29.960Z,99724.86
2019-04-04T19:26:03.041Z,99721.24
2019-04-04T19:28:34.480Z,99729.70
2019-04-04T19:31:07.756Z,99724.98
2019-04-04T19:33:40.360Z,99730.13
2019-04-04T19:36:14.723Z,99730.13
2019-04-04T19:38:47.285Z,99728.97
2019-04-04T19:41:18.757Z,99730.91
2019-04-04T19:43:50.188Z,99729.86
2019-04-04T19:46:22.565Z,99735.21
2019-04-04T19:48:54.026Z,99738.33
2019-04-04T19:51:25.480Z,99733.26
2019-04-04T19:53:58.136Z,99725.13
2019-04-04T19:56:30.519Z,99735.62
2019-04-04T19:59:04.018Z,99731.83
2019-04-04T20:01:36.346Z,99735.05
2019-04-04T20:04:09.139Z,99730.99
2019-04-04T20:06:45.811Z,99747.28
2019-04-04T20:09:18.518Z,99745.45
2019-04-04T20:11:51.900Z,99747.48
2019-04-04T20:14:28.641Z,99751.92
2019-04-04T20:16:59.011Z,99751.37
2019-04-04T20:19:31.334Z,99754.92
2019-04-04T20:22:04.452Z,99752.67
2019-04-04T20:24:37.359Z,99757.81
2019-04-04T20:27:08.805Z,99759.05
2019-04-04T20:29:43.420Z,99762.84
2019-04-04T20:32:17.247Z,99762.07
2019-04-04T20:34:50.226Z,99759.50
2019-04-04T20:37:23.600Z,99770.08
2019-04-04T20:39:57.129Z,99766.41
2019-04-04T20:42:28.753Z,99763.39
2019-04-04T20:45:02.744Z,99768.52
2019-04-04T20:47:37.100Z,99772.00
2019-04-04T20:50:19.768Z,99775.02
2019-04-04T20:52:56.125Z,99782.69
2019-04-04T20:55:33.097Z,99787.75
2019-04-04T20:58:06.874Z,99791.86
2019-04-04T21:00:56.890Z,99793.67
2019-04-04T21:03:30.052Z,99799.12
2019-04-04T21:06:05.835Z,99798.27
2019-04-04T21:08:43.947Z,99798.89
2019-04-04T21:11:16.440Z,99802.06
2019-04-04T21:13:56.430Z,99806.92
2019-04-04T21:16:28.692Z,99802.27
2019-04-04T21:19:01.464Z,99801.78
2019-04-04T21:21:34.350Z,99813.56
2019-04-04T21:24:07.042Z,99811.23
2019-04-04T21:26:39.718Z,99817.08
2019-04-04T21:29:13.324Z,99809.41
2019-04-04T21:31:47.539Z,99811.98
2019-04-04T21:34:24.777Z,99819.05
2019-04-04T21:36:57.768Z,99822.43
2019-04-04T21:39:30.261Z,99824.40
2019-04-04T21:42:07.978Z,99821.23
2019-04-04T21:44:41.961Z,99823.06
2019-04-04T21:47:21.010Z,99828.48
2019-04-04T21:49:57.225Z,99830.52
2019-04-04T21:52:35.260Z,99835.38
2019-04-04T21:55:07.766Z,99834.88
2019-04-04T21:57:40.958Z,99844.94
2019-04-04T22:00:12.584Z,99836.56
2019-04-04T22:02:45.523Z,99838.00
2019-04-04T22:05:18.590Z,99835.72
2019-04-04T22:07:51.183Z,99841.50
2019-04-04T22:10:41.051Z,99835.94
2019-04-04T22:13:13.743Z,99837.53
2019-04-04T22:15:50.583Z,99837.47
2019-04-04T22:18:24.627Z,99832.20
2019-04-04T22:20:57.297Z,99831.81
2019-04-04T22:23:29.982Z,99833.88
2019-04-04T22:26:03.584Z,99829.52
2019-04-04T22:28:37.814Z,99837.05
2019-04-04T22:31:09.253Z,99837.75
2019-04-04T22:33:41.939Z,99834.44
2019-04-04T22:36:14.606Z,99836.83
2019-04-04T22:38:47.330Z,99828.11
2019-04-04T22:41:20.932Z,99829.66
2019-04-04T22:44:03.443Z,99833.31
2019-04-04T22:46:31.496Z,99835.00
2019-04-04T22:49:02.953Z,99834.30
2019-04-04T22:51:34.392Z,99838.10
2019-04-04T22:54:05.848Z,99845.34
2019-04-04T22:56:38.247Z,99844.36
2019-04-04T22:59:10.519Z,99842.88
2019-04-04T23:01:42.055Z,99847.39
2019-04-04T23:04:13.515Z,99848.23
2019-04-04T23:06:44.951Z,99848.37
2019-04-04T23:09:16.403Z,99851.75
2019-04-04T23:11:47.907Z,99847.03
2019-04-04T23:14:20.836Z,99844.72
2019-04-04T23:16:52.271Z,99842.03
2019-04-04T23:19:24.975Z,99846.05
2019-04-04T23:21:56.424Z,99849.22
2019-04-04T23:24:27.883Z,99852.09
2019-04-04T23:26:59.323Z,99843.02
2019-04-04T23:29:31.086Z,99838.31
2019-04-04T23:32:02.549Z,99840.35
2019-04-04T23:34:34.303Z,99839.02
2019-04-04T23:37:06.048Z,99833.31
2019-04-04T23:39:38.436Z,99842.03
2019-04-04T23:42:09.881Z,99830.94
2019-04-04T23:44:41.339Z,99833.05
2019-04-04T23:47:17.635Z,99833.98
2019-04-04T23:49:50.372Z,99837.01
2019-04-04T23:52:23.192Z,99835.93
2019-04-04T23:54:54.846Z,99841.22
2019-04-04T23:57:26.577Z,99831.28
2019-04-04T23:59:59.659Z,99836.45
